sensor_id;sensor_type;location;lat;lon;timestamp;P1;durP1;ratioP1;P2;durP2;ratioP2
5754;SDS011;2902;42.130;24.732;2023-08-06T00:00:12;11.53;;;6.70;;
5754;SDS011;2902;42.130;24.732;2023-08-06T00:02:40;6.67;;;6.10;;
5754;SDS011;2902;42.130;24.732;2023-08-06T00:05:07;7.20;;;6.23;;
5754;SDS011;2902;42.130;24.732;2023-08-06T00:07:34;12.63;;;6.50;;
5754;SDS011;2902;42.130;24.732;2023-08-06T00:10:01;6.57;;;5.97;;
5754;SDS011;2902;42.130;24.732;2023-08-06T00:12:28;6.80;;;6.20;;
5754;SDS011;2902;42.130;24.732;2023-08-06T00:14:54;6.70;;;6.10;;
5754;SDS011;2902;42.130;24.732;2023-08-06T00:17:21;6.83;;;6.10;;
5754;SDS011;2902;42.130;24.732;2023-08-06T00:19:49;7.00;;;6.27;;
5754;SDS011;2902;42.130;24.732;2023-08-06T00:22:16;9.10;;;6.70;;
5754;SDS011;2902;42.130;24.732;2023-08-06T00:24:42;7.00;;;6.40;;
5754;SDS011;2902;42.130;24.732;2023-08-06T00:27:09;11.10;;;5.80;;
5754;SDS011;2902;42.130;24.732;2023-08-06T00:29:36;8.33;;;5.97;;
5754;SDS011;2902;42.130;24.732;2023-08-06T00:32:03;8.03;;;6.37;;
5754;SDS011;2902;42.130;24.732;2023-08-06T00:34:29;6.83;;;6.20;;
5754;SDS011;2902;42.130;24.732;2023-08-06T00:36:58;6.50;;;5.90;;
5754;SDS011;2902;42.130;24.732;2023-08-06T00:39:24;7.27;;;6.57;;
5754;SDS011;2902;42.130;24.732;2023-08-06T00:41:51;7.27;;;5.93;;
5754;SDS011;2902;42.130;24.732;2023-08-06T00:44:17;7.07;;;6.37;;
5754;SDS011;2902;42.130;24.732;2023-08-06T00:46:44;10.13;;;7.20;;
5754;SDS011;2902;42.130;24.732;2023-08-06T00:49:11;8.23;;;7.40;;
5754;SDS011;2902;42.130;24.732;2023-08-06T00:51:38;6.97;;;6.17;;
5754;SDS011;2902;42.130;24.732;2023-08-06T00:54:06;7.23;;;6.23;;
5754;SDS011;2902;42.130;24.732;2023-08-06T00:56:32;9.80;;;6.77;;
5754;SDS011;2902;42.130;24.732;2023-08-06T00:59:01;11.00;;;7.50;;
5754;SDS011;2902;42.130;24.732;2023-08-06T01:01:29;8.83;;;6.43;;
5754;SDS011;2902;42.130;24.732;2023-08-06T01:03:56;8.53;;;6.83;;
5754;SDS011;2902;42.130;24.732;2023-08-06T01:06:24;8.83;;;6.67;;
5754;SDS011;2902;42.130;24.732;2023-08-06T01:09:01;10.33;;;6.43;;
5754;SDS011;2902;42.130;24.732;2023-08-06T01:11:42;9.13;;;7.27;;
5754;SDS011;2902;42.130;24.732;2023-08-06T01:14:15;6.63;;;6.13;;
5754;SDS011;2902;42.130;24.732;2023-08-06T01:16:50;6.87;;;6.23;;
5754;SDS011;2902;42.130;24.732;2023-08-06T01:19:17;7.13;;;6.63;;
5754;SDS011;2902;42.130;24.732;2023-08-06T01:21:45;8.47;;;6.70;;
5754;SDS011;2902;42.130;24.732;2023-08-06T01:24:12;8.47;;;6.77;;
5754;SDS011;2902;42.130;24.732;2023-08-06T01:26:41;7.03;;;6.53;;
5754;SDS011;2902;42.130;24.732;2023-08-06T01:29:11;9.40;;;6.93;;
5754;SDS011;2902;42.130;24.732;2023-08-06T01:31:41;9.70;;;6.97;;
5754;SDS011;2902;42.130;24.732;2023-08-06T01:34:11;7.43;;;6.80;;
5754;SDS011;2902;42.130;24.732;2023-08-06T01:36:43;8.20;;;7.53;;
5754;SDS011;2902;42.130;24.732;2023-08-06T01:39:12;8.17;;;7.40;;
5754;SDS011;2902;42.130;24.732;2023-08-06T01:41:39;8.53;;;7.27;;
5754;SDS011;2902;42.130;24.732;2023-08-06T01:44:05;8.00;;;7.37;;
5754;SDS011;2902;42.130;24.732;2023-08-06T01:46:32;8.30;;;7.60;;
5754;SDS011;2902;42.130;24.732;2023-08-06T01:48:59;8.10;;;7.47;;
5754;SDS011;2902;42.130;24.732;2023-08-06T01:51:25;8.23;;;7.37;;
5754;SDS011;2902;42.130;24.732;2023-08-06T01:53:52;10.63;;;7.00;;
5754;SDS011;2902;42.130;24.732;2023-08-06T01:56:20;8.53;;;7.63;;
5754;SDS011;2902;42.130;24.732;2023-08-06T01:58:47;8.30;;;7.10;;
5754;SDS011;2902;42.130;24.732;2023-08-06T02:01:14;9.20;;;8.13;;
5754;SDS011;2902;42.130;24.732;2023-08-06T02:03:40;8.07;;;7.00;;
5754;SDS011;2902;42.130;24.732;2023-08-06T02:06:07;9.10;;;7.73;;
5754;SDS011;2902;42.130;24.732;2023-08-06T02:08:34;9.90;;;7.70;;
5754;SDS011;2902;42.130;24.732;2023-08-06T02:11:00;10.93;;;8.00;;
5754;SDS011;2902;42.130;24.732;2023-08-06T02:13:29;11.73;;;8.20;;
5754;SDS011;2902;42.130;24.732;2023-08-06T02:15:55;15.43;;;8.43;;
5754;SDS011;2902;42.130;24.732;2023-08-06T02:18:22;9.57;;;8.30;;
5754;SDS011;2902;42.130;24.732;2023-08-06T02:20:54;10.20;;;8.57;;
5754;SDS011;2902;42.130;24.732;2023-08-06T02:23:22;9.07;;;8.17;;
5754;SDS011;2902;42.130;24.732;2023-08-06T02:25:56;16.40;;;9.10;;
5754;SDS011;2902;42.130;24.732;2023-08-06T02:28:23;10.13;;;8.90;;
5754;SDS011;2902;42.130;24.732;2023-08-06T02:30:51;9.50;;;8.73;;
5754;SDS011;2902;42.130;24.732;2023-08-06T02:33:18;10.30;;;9.47;;
5754;SDS011;2902;42.130;24.732;2023-08-06T02:35:45;13.50;;;10.33;;
5754;SDS011;2902;42.130;24.732;2023-08-06T02:38:11;10.53;;;9.60;;
5754;SDS011;2902;42.130;24.732;2023-08-06T02:40:42;11.10;;;10.20;;
5754;SDS011;2902;42.130;24.732;2023-08-06T02:43:10;12.80;;;11.60;;
5754;SDS011;2902;42.130;24.732;2023-08-06T02:45:37;11.47;;;10.50;;
5754;SDS011;2902;42.130;24.732;2023-08-06T02:48:05;12.57;;;11.27;;
5754;SDS011;2902;42.130;24.732;2023-08-06T02:50:37;13.63;;;12.43;;
5754;SDS011;2902;42.130;24.732;2023-08-06T02:53:04;15.10;;;12.50;;
5754;SDS011;2902;42.130;24.732;2023-08-06T02:55:31;12.73;;;11.37;;
5754;SDS011;2902;42.130;24.732;2023-08-06T02:57:58;14.10;;;12.43;;
5754;SDS011;2902;42.130;24.732;2023-08-06T03:00:25;13.70;;;12.30;;
5754;SDS011;2902;42.130;24.732;2023-08-06T03:02:52;11.77;;;10.87;;
5754;SDS011;2902;42.130;24.732;2023-08-06T03:05:20;13.67;;;12.47;;
5754;SDS011;2902;42.130;24.732;2023-08-06T03:07:47;13.10;;;12.20;;
5754;SDS011;2902;42.130;24.732;2023-08-06T03:10:14;12.77;;;11.57;;
5754;SDS011;2902;42.130;24.732;2023-08-06T03:12:40;13.60;;;12.20;;
5754;SDS011;2902;42.130;24.732;2023-08-06T03:15:07;13.20;;;11.93;;
5754;SDS011;2902;42.130;24.732;2023-08-06T03:17:35;13.27;;;11.87;;
5754;SDS011;2902;42.130;24.732;2023-08-06T03:20:01;14.77;;;13.40;;
5754;SDS011;2902;42.130;24.732;2023-08-06T03:22:30;16.00;;;14.37;;
5754;SDS011;2902;42.130;24.732;2023-08-06T03:24:56;16.40;;;14.73;;
5754;SDS011;2902;42.130;24.732;2023-08-06T03:27:23;16.27;;;14.83;;
5754;SDS011;2902;42.130;24.732;2023-08-06T03:29:50;17.63;;;15.90;;
5754;SDS011;2902;42.130;24.732;2023-08-06T03:32:16;17.73;;;16.00;;
5754;SDS011;2902;42.130;24.732;2023-08-06T03:34:43;18.67;;;16.30;;
5754;SDS011;2902;42.130;24.732;2023-08-06T03:37:10;18.20;;;16.40;;
5754;SDS011;2902;42.130;24.732;2023-08-06T03:39:38;18.20;;;16.50;;
5754;SDS011;2902;42.130;24.732;2023-08-06T03:42:05;17.87;;;16.07;;
5754;SDS011;2902;42.130;24.732;2023-08-06T03:44:32;17.93;;;16.37;;
5754;SDS011;2902;42.130;24.732;2023-08-06T03:46:58;18.57;;;16.83;;
5754;SDS011;2902;42.130;24.732;2023-08-06T03:49:25;20.23;;;16.53;;
5754;SDS011;2902;42.130;24.732;2023-08-06T03:51:52;17.87;;;16.17;;
5754;SDS011;2902;42.130;24.732;2023-08-06T03:54:18;17.83;;;16.13;;
5754;SDS011;2902;42.130;24.732;2023-08-06T03:56:46;18.83;;;17.20;;
5754;SDS011;2902;42.130;24.732;2023-08-06T03:59:13;21.57;;;17.93;;
5754;SDS011;2902;42.130;24.732;2023-08-06T04:01:40;20.33;;;18.33;;
5754;SDS011;2902;42.130;24.732;2023-08-06T04:04:06;22.27;;;18.80;;
5754;SDS011;2902;42.130;24.732;2023-08-06T04:06:33;23.20;;;19.90;;
5754;SDS011;2902;42.130;24.732;2023-08-06T04:09:00;19.90;;;17.97;;
5754;SDS011;2902;42.130;24.732;2023-08-06T04:11:26;21.10;;;19.00;;
5754;SDS011;2902;42.130;24.732;2023-08-06T04:13:54;22.23;;;19.77;;
5754;SDS011;2902;42.130;24.732;2023-08-06T04:16:21;21.17;;;19.30;;
5754;SDS011;2902;42.130;24.732;2023-08-06T04:18:48;26.97;;;20.97;;
5754;SDS011;2902;42.130;24.732;2023-08-06T04:21:14;21.70;;;19.70;;
5754;SDS011;2902;42.130;24.732;2023-08-06T04:23:41;21.90;;;19.60;;
5754;SDS011;2902;42.130;24.732;2023-08-06T04:26:08;23.70;;;21.13;;
5754;SDS011;2902;42.130;24.732;2023-08-06T04:28:34;23.90;;;19.97;;
5754;SDS011;2902;42.130;24.732;2023-08-06T04:31:02;25.23;;;20.47;;
5754;SDS011;2902;42.130;24.732;2023-08-06T04:33:29;22.77;;;20.53;;
5754;SDS011;2902;42.130;24.732;2023-08-06T04:35:56;21.83;;;19.53;;
5754;SDS011;2902;42.130;24.732;2023-08-06T04:38:23;21.47;;;18.93;;
5754;SDS011;2902;42.130;24.732;2023-08-06T04:40:51;25.03;;;20.37;;
5754;SDS011;2902;42.130;24.732;2023-08-06T04:43:18;20.67;;;18.47;;
5754;SDS011;2902;42.130;24.732;2023-08-06T04:45:48;21.17;;;19.23;;
5754;SDS011;2902;42.130;24.732;2023-08-06T04:48:17;21.83;;;19.70;;
5754;SDS011;2902;42.130;24.732;2023-08-06T04:50:44;25.00;;;20.30;;
5754;SDS011;2902;42.130;24.732;2023-08-06T04:53:11;21.63;;;19.73;;
5754;SDS011;2902;42.130;24.732;2023-08-06T04:55:38;25.10;;;19.17;;
5754;SDS011;2902;42.130;24.732;2023-08-06T04:58:04;20.90;;;18.73;;
5754;SDS011;2902;42.130;24.732;2023-08-06T05:00:31;22.03;;;19.67;;
5754;SDS011;2902;42.130;24.732;2023-08-06T05:02:59;22.57;;;20.50;;
5754;SDS011;2902;42.130;24.732;2023-08-06T05:05:28;21.30;;;19.30;;
5754;SDS011;2902;42.130;24.732;2023-08-06T05:07:55;22.17;;;19.90;;
5754;SDS011;2902;42.130;24.732;2023-08-06T05:10:24;20.40;;;18.40;;
5754;SDS011;2902;42.130;24.732;2023-08-06T05:12:51;22.70;;;20.50;;
5754;SDS011;2902;42.130;24.732;2023-08-06T05:15:17;21.73;;;19.43;;
5754;SDS011;2902;42.130;24.732;2023-08-06T05:17:44;21.37;;;19.27;;
5754;SDS011;2902;42.130;24.732;2023-08-06T05:20:11;22.20;;;19.50;;
5754;SDS011;2902;42.130;24.732;2023-08-06T05:22:39;21.90;;;19.97;;
5754;SDS011;2902;42.130;24.732;2023-08-06T05:25:06;20.43;;;18.50;;
5754;SDS011;2902;42.130;24.732;2023-08-06T05:27:33;17.27;;;13.27;;
5754;SDS011;2902;42.130;24.732;2023-08-06T05:30:00;13.57;;;9.13;;
5754;SDS011;2902;42.130;24.732;2023-08-06T05:32:26;8.83;;;7.60;;
5754;SDS011;2902;42.130;24.732;2023-08-06T05:34:53;10.70;;;8.40;;
5754;SDS011;2902;42.130;24.732;2023-08-06T05:37:20;13.03;;;7.90;;
5754;SDS011;2902;42.130;24.732;2023-08-06T05:39:48;10.43;;;8.10;;
5754;SDS011;2902;42.130;24.732;2023-08-06T05:42:15;9.73;;;7.67;;
5754;SDS011;2902;42.130;24.732;2023-08-06T05:44:42;7.47;;;6.87;;
5754;SDS011;2902;42.130;24.732;2023-08-06T05:47:09;8.93;;;7.17;;
5754;SDS011;2902;42.130;24.732;2023-08-06T05:49:35;7.10;;;6.57;;
5754;SDS011;2902;42.130;24.732;2023-08-06T05:52:02;7.23;;;6.63;;
5754;SDS011;2902;42.130;24.732;2023-08-06T05:54:31;7.73;;;6.40;;
5754;SDS011;2902;42.130;24.732;2023-08-06T05:56:59;7.37;;;6.70;;
5754;SDS011;2902;42.130;24.732;2023-08-06T05:59:26;10.37;;;7.30;;
5754;SDS011;2902;42.130;24.732;2023-08-06T06:01:52;7.53;;;6.83;;
5754;SDS011;2902;42.130;24.732;2023-08-06T06:04:19;8.47;;;7.50;;
5754;SDS011;2902;42.130;24.732;2023-08-06T06:06:46;12.57;;;8.63;;
5754;SDS011;2902;42.130;24.732;2023-08-06T06:09:13;9.00;;;7.57;;
5754;SDS011;2902;42.130;24.732;2023-08-06T06:11:39;8.23;;;7.30;;
5754;SDS011;2902;42.130;24.732;2023-08-06T06:14:08;9.63;;;8.47;;
5754;SDS011;2902;42.130;24.732;2023-08-06T06:16:34;8.23;;;7.13;;
5754;SDS011;2902;42.130;24.732;2023-08-06T06:19:01;7.60;;;6.97;;
5754;SDS011;2902;42.130;24.732;2023-08-06T06:21:28;9.30;;;8.43;;
5754;SDS011;2902;42.130;24.732;2023-08-06T06:23:54;10.23;;;8.03;;
5754;SDS011;2902;42.130;24.732;2023-08-06T06:26:21;10.00;;;7.27;;
5754;SDS011;2902;42.130;24.732;2023-08-06T06:28:48;9.63;;;7.03;;
5754;SDS011;2902;42.130;24.732;2023-08-06T06:31:16;10.20;;;6.53;;
5754;SDS011;2902;42.130;24.732;2023-08-06T06:33:43;10.90;;;6.90;;
5754;SDS011;2902;42.130;24.732;2023-08-06T06:36:10;13.23;;;7.30;;
5754;SDS011;2902;42.130;24.732;2023-08-06T06:38:36;9.80;;;8.27;;
5754;SDS011;2902;42.130;24.732;2023-08-06T06:41:03;8.47;;;7.57;;
5754;SDS011;2902;42.130;24.732;2023-08-06T06:43:30;6.60;;;6.13;;
5754;SDS011;2902;42.130;24.732;2023-08-06T06:45:57;7.90;;;7.40;;
5754;SDS011;2902;42.130;24.732;2023-08-06T06:48:26;9.83;;;7.33;;
5754;SDS011;2902;42.130;24.732;2023-08-06T06:50:54;7.67;;;6.87;;
5754;SDS011;2902;42.130;24.732;2023-08-06T06:53:21;7.23;;;6.37;;
5754;SDS011;2902;42.130;24.732;2023-08-06T06:55:54;10.33;;;8.63;;
5754;SDS011;2902;42.130;24.732;2023-08-06T06:58:21;8.33;;;7.53;;
5754;SDS011;2902;42.130;24.732;2023-08-06T07:00:48;7.73;;;7.23;;
5754;SDS011;2902;42.130;24.732;2023-08-06T07:03:15;9.43;;;7.10;;
5754;SDS011;2902;42.130;24.732;2023-08-06T07:05:43;8.73;;;7.67;;
5754;SDS011;2902;42.130;24.732;2023-08-06T07:08:10;10.37;;;7.57;;
5754;SDS011;2902;42.130;24.732;2023-08-06T07:10:37;8.47;;;7.67;;
5754;SDS011;2902;42.130;24.732;2023-08-06T07:13:04;8.57;;;7.97;;
5754;SDS011;2902;42.130;24.732;2023-08-06T07:15:31;8.90;;;8.13;;
5754;SDS011;2902;42.130;24.732;2023-08-06T07:17:59;8.77;;;7.97;;
5754;SDS011;2902;42.130;24.732;2023-08-06T07:20:27;8.97;;;8.13;;
5754;SDS011;2902;42.130;24.732;2023-08-06T07:22:58;8.13;;;7.53;;
5754;SDS011;2902;42.130;24.732;2023-08-06T07:25:25;9.47;;;8.70;;
5754;SDS011;2902;42.130;24.732;2023-08-06T07:27:51;8.60;;;7.93;;
5754;SDS011;2902;42.130;24.732;2023-08-06T07:30:18;8.03;;;7.47;;
5754;SDS011;2902;42.130;24.732;2023-08-06T07:32:45;8.37;;;7.57;;
5754;SDS011;2902;42.130;24.732;2023-08-06T07:35:11;9.33;;;8.43;;
5754;SDS011;2902;42.130;24.732;2023-08-06T07:37:39;8.37;;;7.03;;
5754;SDS011;2902;42.130;24.732;2023-08-06T07:40:08;12.03;;;8.60;;
5754;SDS011;2902;42.130;24.732;2023-08-06T07:42:35;10.27;;;9.30;;
5754;SDS011;2902;42.130;24.732;2023-08-06T07:45:02;11.17;;;9.37;;
5754;SDS011;2902;42.130;24.732;2023-08-06T07:47:29;11.03;;;9.67;;
5754;SDS011;2902;42.130;24.732;2023-08-06T07:49:55;10.17;;;9.27;;
5754;SDS011;2902;42.130;24.732;2023-08-06T07:52:22;10.60;;;9.90;;
5754;SDS011;2902;42.130;24.732;2023-08-06T07:54:49;10.33;;;9.53;;
5754;SDS011;2902;42.130;24.732;2023-08-06T07:57:17;9.60;;;8.80;;
5754;SDS011;2902;42.130;24.732;2023-08-06T07:59:44;12.27;;;9.67;;
5754;SDS011;2902;42.130;24.732;2023-08-06T08:02:10;11.27;;;10.27;;
5754;SDS011;2902;42.130;24.732;2023-08-06T08:04:37;12.30;;;9.90;;
5754;SDS011;2902;42.130;24.732;2023-08-06T08:07:04;11.07;;;10.17;;
5754;SDS011;2902;42.130;24.732;2023-08-06T08:09:31;10.60;;;9.70;;
5754;SDS011;2902;42.130;24.732;2023-08-06T08:11:58;13.73;;;11.13;;
5754;SDS011;2902;42.130;24.732;2023-08-06T08:14:27;13.87;;;12.03;;
5754;SDS011;2902;42.130;24.732;2023-08-06T08:16:58;12.63;;;11.50;;
5754;SDS011;2902;42.130;24.732;2023-08-06T08:19:25;12.83;;;11.67;;
5754;SDS011;2902;42.130;24.732;2023-08-06T08:21:53;13.33;;;12.17;;
5754;SDS011;2902;42.130;24.732;2023-08-06T08:24:20;13.50;;;12.03;;
5754;SDS011;2902;42.130;24.732;2023-08-06T08:26:49;13.03;;;11.70;;
5754;SDS011;2902;42.130;24.732;2023-08-06T08:29:15;13.37;;;11.97;;
5754;SDS011;2902;42.130;24.732;2023-08-06T08:31:43;13.90;;;12.83;;
5754;SDS011;2902;42.130;24.732;2023-08-06T08:34:10;14.77;;;13.60;;
5754;SDS011;2902;42.130;24.732;2023-08-06T08:36:37;14.07;;;12.80;;
5754;SDS011;2902;42.130;24.732;2023-08-06T08:39:04;15.77;;;12.30;;
5754;SDS011;2902;42.130;24.732;2023-08-06T08:41:31;17.43;;;11.23;;
5754;SDS011;2902;42.130;24.732;2023-08-06T08:43:59;10.73;;;9.93;;
5754;SDS011;2902;42.130;24.732;2023-08-06T08:46:26;11.23;;;8.97;;
5754;SDS011;2902;42.130;24.732;2023-08-06T08:48:57;9.50;;;8.50;;
5754;SDS011;2902;42.130;24.732;2023-08-06T08:51:25;8.80;;;8.20;;
5754;SDS011;2902;42.130;24.732;2023-08-06T08:53:54;8.40;;;7.90;;
5754;SDS011;2902;42.130;24.732;2023-08-06T08:56:22;8.20;;;7.70;;
5754;SDS011;2902;42.130;24.732;2023-08-06T08:58:49;9.73;;;8.93;;
5754;SDS011;2902;42.130;24.732;2023-08-06T09:01:18;10.40;;;9.47;;
5754;SDS011;2902;42.130;24.732;2023-08-06T09:03:46;10.10;;;9.23;;
5754;SDS011;2902;42.130;24.732;2023-08-06T09:06:15;8.77;;;8.27;;
5754;SDS011;2902;42.130;24.732;2023-08-06T09:08:46;9.17;;;8.47;;
5754;SDS011;2902;42.130;24.732;2023-08-06T09:11:17;7.90;;;7.43;;
5754;SDS011;2902;42.130;24.732;2023-08-06T09:13:47;9.87;;;9.27;;
5754;SDS011;2902;42.130;24.732;2023-08-06T09:16:14;9.70;;;8.80;;
5754;SDS011;2902;42.130;24.732;2023-08-06T09:18:40;8.07;;;7.47;;
5754;SDS011;2902;42.130;24.732;2023-08-06T09:21:12;6.17;;;5.67;;
5754;SDS011;2902;42.130;24.732;2023-08-06T09:23:42;5.50;;;5.20;;
5754;SDS011;2902;42.130;24.732;2023-08-06T09:26:11;6.10;;;5.53;;
5754;SDS011;2902;42.130;24.732;2023-08-06T09:28:38;4.03;;;3.83;;
5754;SDS011;2902;42.130;24.732;2023-08-06T09:31:07;4.80;;;4.40;;
5754;SDS011;2902;42.130;24.732;2023-08-06T09:33:35;7.30;;;4.50;;
5754;SDS011;2902;42.130;24.732;2023-08-06T09:36:09;5.07;;;4.77;;
5754;SDS011;2902;42.130;24.732;2023-08-06T09:38:40;5.30;;;5.00;;
5754;SDS011;2902;42.130;24.732;2023-08-06T09:41:08;3.87;;;3.67;;
5754;SDS011;2902;42.130;24.732;2023-08-06T09:43:41;5.00;;;4.40;;
5754;SDS011;2902;42.130;24.732;2023-08-06T09:46:12;4.93;;;4.53;;
5754;SDS011;2902;42.130;24.732;2023-08-06T09:48:44;3.90;;;3.70;;
5754;SDS011;2902;42.130;24.732;2023-08-06T09:51:16;4.20;;;3.93;;
5754;SDS011;2902;42.130;24.732;2023-08-06T09:53:46;4.57;;;4.17;;
5754;SDS011;2902;42.130;24.732;2023-08-06T09:56:15;4.50;;;4.20;;
5754;SDS011;2902;42.130;24.732;2023-08-06T09:58:44;4.73;;;4.33;;
5754;SDS011;2902;42.130;24.732;2023-08-06T10:01:13;5.20;;;4.80;;
5754;SDS011;2902;42.130;24.732;2023-08-06T10:03:42;7.60;;;7.27;;
5754;SDS011;2902;42.130;24.732;2023-08-06T10:06:10;7.17;;;6.67;;
5754;SDS011;2902;42.130;24.732;2023-08-06T10:08:38;8.23;;;7.73;;
5754;SDS011;2902;42.130;24.732;2023-08-06T10:11:08;7.63;;;7.13;;
5754;SDS011;2902;42.130;24.732;2023-08-06T10:13:38;7.53;;;7.23;;
5754;SDS011;2902;42.130;24.732;2023-08-06T10:16:05;7.63;;;7.23;;
5754;SDS011;2902;42.130;24.732;2023-08-06T10:18:32;7.40;;;7.00;;
5754;SDS011;2902;42.130;24.732;2023-08-06T10:21:02;7.23;;;6.63;;
5754;SDS011;2902;42.130;24.732;2023-08-06T10:23:35;6.90;;;6.50;;
5754;SDS011;2902;42.130;24.732;2023-08-06T10:26:03;7.07;;;6.30;;
5754;SDS011;2902;42.130;24.732;2023-08-06T10:28:35;6.53;;;6.23;;
5754;SDS011;2902;42.130;24.732;2023-08-06T10:31:02;8.60;;;6.43;;
5754;SDS011;2902;42.130;24.732;2023-08-06T10:33:39;5.73;;;5.33;;
5754;SDS011;2902;42.130;24.732;2023-08-06T10:36:10;5.43;;;5.23;;
5754;SDS011;2902;42.130;24.732;2023-08-06T10:38:44;6.87;;;6.23;;
5754;SDS011;2902;42.130;24.732;2023-08-06T10:41:15;6.60;;;6.20;;
5754;SDS011;2902;42.130;24.732;2023-08-06T10:43:44;6.30;;;5.90;;
5754;SDS011;2902;42.130;24.732;2023-08-06T10:46:21;6.20;;;5.85;;
5754;SDS011;2902;42.130;24.732;2023-08-06T10:48:49;5.67;;;5.47;;
5754;SDS011;2902;42.130;24.732;2023-08-06T10:51:17;5.40;;;5.10;;
5754;SDS011;2902;42.130;24.732;2023-08-06T10:53:44;6.40;;;5.80;;
5754;SDS011;2902;42.130;24.732;2023-08-06T10:56:12;5.70;;;5.40;;
5754;SDS011;2902;42.130;24.732;2023-08-06T10:58:39;6.13;;;5.70;;
5754;SDS011;2902;42.130;24.732;2023-08-06T11:01:07;5.80;;;5.30;;
5754;SDS011;2902;42.130;24.732;2023-08-06T11:03:34;5.67;;;5.17;;
5754;SDS011;2902;42.130;24.732;2023-08-06T11:06:02;5.77;;;5.37;;
5754;SDS011;2902;42.130;24.732;2023-08-06T11:08:33;5.87;;;5.47;;
5754;SDS011;2902;42.130;24.732;2023-08-06T11:11:07;4.70;;;4.40;;
5754;SDS011;2902;42.130;24.732;2023-08-06T11:13:36;5.30;;;5.00;;
5754;SDS011;2902;42.130;24.732;2023-08-06T11:16:03;5.38;;;5.07;;
5754;SDS011;2902;42.130;24.732;2023-08-06T11:18:32;5.35;;;5.15;;
5754;SDS011;2902;42.130;24.732;2023-08-06T11:20:58;4.78;;;4.57;;
5754;SDS011;2902;42.130;24.732;2023-08-06T11:23:26;4.85;;;4.45;;
5754;SDS011;2902;42.130;24.732;2023-08-06T11:25:53;5.15;;;4.85;;
5754;SDS011;2902;42.130;24.732;2023-08-06T11:28:20;4.32;;;4.15;;
5754;SDS011;2902;42.130;24.732;2023-08-06T11:30:47;4.57;;;4.38;;
5754;SDS011;2902;42.130;24.732;2023-08-06T11:33:14;4.25;;;4.05;;
5754;SDS011;2902;42.130;24.732;2023-08-06T11:35:42;4.55;;;4.28;;
5754;SDS011;2902;42.130;24.732;2023-08-06T11:38:09;4.10;;;3.80;;
5754;SDS011;2902;42.130;24.732;2023-08-06T11:40:35;4.45;;;4.25;;
5754;SDS011;2902;42.130;24.732;2023-08-06T11:43:02;4.30;;;3.85;;
5754;SDS011;2902;42.130;24.732;2023-08-06T11:45:29;3.50;;;3.40;;
5754;SDS011;2902;42.130;24.732;2023-08-06T11:47:56;5.93;;;4.00;;
5754;SDS011;2902;42.130;24.732;2023-08-06T11:50:24;4.45;;;4.15;;
5754;SDS011;2902;42.130;24.732;2023-08-06T11:52:54;3.95;;;3.75;;
5754;SDS011;2902;42.130;24.732;2023-08-06T11:55:22;4.18;;;3.97;;
5754;SDS011;2902;42.130;24.732;2023-08-06T11:57:50;3.53;;;3.22;;
5754;SDS011;2902;42.130;24.732;2023-08-06T12:00:17;3.73;;;3.53;;
5754;SDS011;2902;42.130;24.732;2023-08-06T12:02:47;3.03;;;2.83;;
5754;SDS011;2902;42.130;24.732;2023-08-06T12:05:17;3.08;;;2.88;;
5754;SDS011;2902;42.130;24.732;2023-08-06T12:07:46;4.67;;;3.03;;
5754;SDS011;2902;42.130;24.732;2023-08-06T12:10:15;3.30;;;3.20;;
5754;SDS011;2902;42.130;24.732;2023-08-06T12:12:44;2.70;;;2.60;;
5754;SDS011;2902;42.130;24.732;2023-08-06T12:15:11;3.20;;;3.00;;
5754;SDS011;2902;42.130;24.732;2023-08-06T12:17:38;3.20;;;3.00;;
5754;SDS011;2902;42.130;24.732;2023-08-06T12:20:06;3.27;;;2.93;;
5754;SDS011;2902;42.130;24.732;2023-08-06T12:22:34;3.27;;;3.10;;
5754;SDS011;2902;42.130;24.732;2023-08-06T12:25:01;4.37;;;3.00;;
5754;SDS011;2902;42.130;24.732;2023-08-06T12:27:29;4.57;;;3.03;;
5754;SDS011;2902;42.130;24.732;2023-08-06T12:29:56;4.30;;;3.97;;
5754;SDS011;2902;42.130;24.732;2023-08-06T12:32:23;3.20;;;3.00;;
5754;SDS011;2902;42.130;24.732;2023-08-06T12:34:50;2.90;;;2.73;;
5754;SDS011;2902;42.130;24.732;2023-08-06T12:37:16;3.67;;;3.47;;
5754;SDS011;2902;42.130;24.732;2023-08-06T12:39:43;2.83;;;2.60;;
5754;SDS011;2902;42.130;24.732;2023-08-06T12:42:10;3.47;;;3.23;;
5754;SDS011;2902;42.130;24.732;2023-08-06T12:44:38;3.00;;;2.20;;
5754;SDS011;2902;42.130;24.732;2023-08-06T12:47:06;4.07;;;3.00;;
5754;SDS011;2902;42.130;24.732;2023-08-06T12:49:33;2.70;;;2.50;;
5754;SDS011;2902;42.130;24.732;2023-08-06T12:52:00;3.10;;;2.90;;
5754;SDS011;2902;42.130;24.732;2023-08-06T12:54:27;3.17;;;2.93;;
5754;SDS011;2902;42.130;24.732;2023-08-06T12:56:54;2.37;;;2.23;;
5754;SDS011;2902;42.130;24.732;2023-08-06T12:59:21;3.37;;;3.10;;
5754;SDS011;2902;42.130;24.732;2023-08-06T13:01:50;3.03;;;2.60;;
5754;SDS011;2902;42.130;24.732;2023-08-06T13:04:16;2.33;;;2.23;;
5754;SDS011;2902;42.130;24.732;2023-08-06T13:06:43;2.90;;;2.70;;
5754;SDS011;2902;42.130;24.732;2023-08-06T13:09:10;2.90;;;2.70;;
5754;SDS011;2902;42.130;24.732;2023-08-06T13:11:37;2.77;;;2.57;;
5754;SDS011;2902;42.130;24.732;2023-08-06T13:14:05;9.63;;;3.20;;
5754;SDS011;2902;42.130;24.732;2023-08-06T13:16:34;4.57;;;2.50;;
5754;SDS011;2902;42.130;24.732;2023-08-06T13:19:02;3.30;;;3.07;;
5754;SDS011;2902;42.130;24.732;2023-08-06T13:21:31;2.50;;;2.40;;
5754;SDS011;2902;42.130;24.732;2023-08-06T13:24:00;2.90;;;2.70;;
5754;SDS011;2902;42.130;24.732;2023-08-06T13:26:27;2.90;;;2.27;;
5754;SDS011;2902;42.130;24.732;2023-08-06T13:28:54;2.80;;;2.53;;
5754;SDS011;2902;42.130;24.732;2023-08-06T13:31:21;4.50;;;2.27;;
5754;SDS011;2902;42.130;24.732;2023-08-06T13:33:48;2.70;;;1.87;;
5754;SDS011;2902;42.130;24.732;2023-08-06T13:36:16;2.43;;;2.33;;
5754;SDS011;2902;42.130;24.732;2023-08-06T13:38:43;2.30;;;2.20;;
5754;SDS011;2902;42.130;24.732;2023-08-06T13:41:10;3.60;;;2.50;;
5754;SDS011;2902;42.130;24.732;2023-08-06T13:43:37;4.33;;;2.80;;
5754;SDS011;2902;42.130;24.732;2023-08-06T13:46:03;3.77;;;2.33;;
5754;SDS011;2902;42.130;24.732;2023-08-06T13:48:30;2.30;;;2.20;;
5754;SDS011;2902;42.130;24.732;2023-08-06T13:50:57;1.73;;;1.73;;
5754;SDS011;2902;42.130;24.732;2023-08-06T13:53:25;1.97;;;1.87;;
5754;SDS011;2902;42.130;24.732;2023-08-06T13:55:55;2.17;;;2.07;;
5754;SDS011;2902;42.130;24.732;2023-08-06T13:58:21;2.10;;;2.00;;
5754;SDS011;2902;42.130;24.732;2023-08-06T14:00:48;2.43;;;2.20;;
5754;SDS011;2902;42.130;24.732;2023-08-06T14:03:18;2.27;;;2.17;;
5754;SDS011;2902;42.130;24.732;2023-08-06T14:05:44;4.37;;;1.90;;
5754;SDS011;2902;42.130;24.732;2023-08-06T14:08:11;2.40;;;2.00;;
5754;SDS011;2902;42.130;24.732;2023-08-06T14:10:40;2.07;;;1.87;;
5754;SDS011;2902;42.130;24.732;2023-08-06T14:13:07;3.27;;;1.87;;
5754;SDS011;2902;42.130;24.732;2023-08-06T14:15:33;1.70;;;1.63;;
5754;SDS011;2902;42.130;24.732;2023-08-06T14:18:00;1.80;;;1.70;;
5754;SDS011;2902;42.130;24.732;2023-08-06T14:20:27;2.37;;;2.00;;
5754;SDS011;2902;42.130;24.732;2023-08-06T14:22:54;3.50;;;2.20;;
5754;SDS011;2902;42.130;24.732;2023-08-06T14:25:20;3.87;;;1.93;;
5754;SDS011;2902;42.130;24.732;2023-08-06T14:27:49;2.00;;;1.90;;
5754;SDS011;2902;42.130;24.732;2023-08-06T14:30:15;1.80;;;1.70;;
5754;SDS011;2902;42.130;24.732;2023-08-06T14:32:42;4.30;;;2.70;;
5754;SDS011;2902;42.130;24.732;2023-08-06T14:35:09;6.47;;;2.10;;
5754;SDS011;2902;42.130;24.732;2023-08-06T14:37:36;2.20;;;2.10;;
5754;SDS011;2902;42.130;24.732;2023-08-06T14:40:04;2.23;;;2.13;;
5754;SDS011;2902;42.130;24.732;2023-08-06T14:42:31;2.20;;;2.10;;
5754;SDS011;2902;42.130;24.732;2023-08-06T14:44:59;2.43;;;2.23;;
5754;SDS011;2902;42.130;24.732;2023-08-06T14:47:26;2.00;;;1.80;;
5754;SDS011;2902;42.130;24.732;2023-08-06T14:49:53;7.67;;;2.47;;
5754;SDS011;2902;42.130;24.732;2023-08-06T14:52:19;3.60;;;2.10;;
5754;SDS011;2902;42.130;24.732;2023-08-06T14:54:46;2.60;;;2.40;;